sensor_id;sensor_type;location;lat;lon;timestamp;P1;durP1;ratioP1;P2;durP2;ratioP2
23578;SDS011;11967;50.852;4.400;2023-05-20T00:00:28;11.57;;;4.30;;
23578;SDS011;11967;50.852;4.400;2023-05-20T00:02:54;13.93;;;4.72;;
23578;SDS011;11967;50.852;4.400;2023-05-20T00:05:21;10.70;;;3.55;;
23578;SDS011;11967;50.852;4.400;2023-05-20T00:07:47;9.38;;;4.18;;
23578;SDS011;11967;50.852;4.400;2023-05-20T00:10:13;8.55;;;3.92;;
23578;SDS011;11967;50.852;4.400;2023-05-20T00:12:39;8.32;;;3.88;;
23578;SDS011;11967;50.852;4.400;2023-05-20T00:15:05;7.25;;;3.92;;
23578;SDS011;11967;50.852;4.400;2023-05-20T00:17:31;7.32;;;4.35;;
23578;SDS011;11967;50.852;4.400;2023-05-20T00:19:57;8.82;;;4.30;;
23578;SDS011;11967;50.852;4.400;2023-05-20T00:22:24;9.60;;;4.43;;
23578;SDS011;11967;50.852;4.400;2023-05-20T00:24:50;14.70;;;4.07;;
23578;SDS011;11967;50.852;4.400;2023-05-20T00:27:16;13.75;;;4.55;;
23578;SDS011;11967;50.852;4.400;2023-05-20T00:29:42;9.57;;;3.95;;
23578;SDS011;11967;50.852;4.400;2023-05-20T00:32:07;7.90;;;4.22;;
23578;SDS011;11967;50.852;4.400;2023-05-20T00:34:33;10.88;;;4.47;;
23578;SDS011;11967;50.852;4.400;2023-05-20T00:36:59;9.15;;;4.30;;
23578;SDS011;11967;50.852;4.400;2023-05-20T00:39:25;12.57;;;4.63;;
23578;SDS011;11967;50.852;4.400;2023-05-20T00:41:50;12.45;;;4.80;;
23578;SDS011;11967;50.852;4.400;2023-05-20T00:44:16;9.77;;;4.28;;
23578;SDS011;11967;50.852;4.400;2023-05-20T00:46:43;11.48;;;4.53;;
23578;SDS011;11967;50.852;4.400;2023-05-20T00:49:10;9.73;;;4.80;;
23578;SDS011;11967;50.852;4.400;2023-05-20T00:51:36;10.10;;;4.20;;
23578;SDS011;11967;50.852;4.400;2023-05-20T00:54:02;12.18;;;4.82;;
23578;SDS011;11967;50.852;4.400;2023-05-20T00:56:29;9.27;;;4.50;;
23578;SDS011;11967;50.852;4.400;2023-05-20T00:58:56;12.88;;;4.72;;
23578;SDS011;11967;50.852;4.400;2023-05-20T01:01:22;10.25;;;4.40;;
23578;SDS011;11967;50.852;4.400;2023-05-20T01:03:47;10.63;;;4.72;;
23578;SDS011;11967;50.852;4.400;2023-05-20T01:06:13;10.48;;;4.30;;
23578;SDS011;11967;50.852;4.400;2023-05-20T01:08:39;10.82;;;4.60;;
23578;SDS011;11967;50.852;4.400;2023-05-20T01:11:10;11.48;;;4.57;;
23578;SDS011;11967;50.852;4.400;2023-05-20T01:13:48;11.57;;;4.68;;
23578;SDS011;11967;50.852;4.400;2023-05-20T01:16:22;11.48;;;4.90;;
23578;SDS011;11967;50.852;4.400;2023-05-20T01:18:49;9.52;;;4.90;;
23578;SDS011;11967;50.852;4.400;2023-05-20T01:21:19;12.32;;;4.72;;
23578;SDS011;11967;50.852;4.400;2023-05-20T01:23:46;9.30;;;4.10;;
23578;SDS011;11967;50.852;4.400;2023-05-20T01:26:12;10.00;;;4.30;;
23578;SDS011;11967;50.852;4.400;2023-05-20T01:28:38;8.48;;;4.40;;
23578;SDS011;11967;50.852;4.400;2023-05-20T01:31:09;12.77;;;4.60;;
23578;SDS011;11967;50.852;4.400;2023-05-20T01:33:42;11.25;;;4.60;;
23578;SDS011;11967;50.852;4.400;2023-05-20T01:36:09;9.90;;;4.43;;
23578;SDS011;11967;50.852;4.400;2023-05-20T01:38:35;7.28;;;4.32;;
23578;SDS011;11967;50.852;4.400;2023-05-20T01:41:03;13.23;;;4.55;;
23578;SDS011;11967;50.852;4.400;2023-05-20T01:43:31;8.70;;;4.70;;
23578;SDS011;11967;50.852;4.400;2023-05-20T01:45:56;9.15;;;4.10;;
23578;SDS011;11967;50.852;4.400;2023-05-20T01:48:23;10.60;;;4.78;;
23578;SDS011;11967;50.852;4.400;2023-05-20T01:50:49;8.85;;;4.72;;
23578;SDS011;11967;50.852;4.400;2023-05-20T01:53:14;10.15;;;4.72;;
23578;SDS011;11967;50.852;4.400;2023-05-20T01:55:40;13.60;;;4.80;;
23578;SDS011;11967;50.852;4.400;2023-05-20T01:58:06;12.95;;;4.68;;
23578;SDS011;11967;50.852;4.400;2023-05-20T02:00:32;11.88;;;4.50;;
23578;SDS011;11967;50.852;4.400;2023-05-20T02:02:58;10.60;;;4.40;;
23578;SDS011;11967;50.852;4.400;2023-05-20T02:05:24;12.23;;;4.90;;
23578;SDS011;11967;50.852;4.400;2023-05-20T02:07:51;7.43;;;4.18;;
23578;SDS011;11967;50.852;4.400;2023-05-20T02:10:18;10.55;;;4.40;;
23578;SDS011;11967;50.852;4.400;2023-05-20T02:12:44;7.88;;;4.78;;
23578;SDS011;11967;50.852;4.400;2023-05-20T02:15:12;10.23;;;4.38;;
23578;SDS011;11967;50.852;4.400;2023-05-20T02:17:39;8.07;;;4.20;;
23578;SDS011;11967;50.852;4.400;2023-05-20T02:20:07;7.15;;;4.07;;
23578;SDS011;11967;50.852;4.400;2023-05-20T02:22:34;8.23;;;4.20;;
23578;SDS011;11967;50.852;4.400;2023-05-20T02:25:00;6.90;;;4.18;;
23578;SDS011;11967;50.852;4.400;2023-05-20T02:27:26;6.38;;;3.83;;
23578;SDS011;11967;50.852;4.400;2023-05-20T02:29:53;6.70;;;3.63;;
23578;SDS011;11967;50.852;4.400;2023-05-20T02:32:18;11.52;;;4.22;;
23578;SDS011;11967;50.852;4.400;2023-05-20T02:34:48;10.30;;;3.78;;
23578;SDS011;11967;50.852;4.400;2023-05-20T02:37:14;8.07;;;3.97;;
23578;SDS011;11967;50.852;4.400;2023-05-20T02:39:40;12.23;;;4.47;;
23578;SDS011;11967;50.852;4.400;2023-05-20T02:42:06;9.13;;;4.00;;
23578;SDS011;11967;50.852;4.400;2023-05-20T02:44:31;9.98;;;3.88;;
23578;SDS011;11967;50.852;4.400;2023-05-20T02:46:57;9.10;;;3.72;;
23578;SDS011;11967;50.852;4.400;2023-05-20T02:49:24;11.13;;;4.00;;
23578;SDS011;11967;50.852;4.400;2023-05-20T02:51:51;8.30;;;4.35;;
23578;SDS011;11967;50.852;4.400;2023-05-20T02:54:19;10.30;;;3.92;;
23578;SDS011;11967;50.852;4.400;2023-05-20T02:56:45;7.88;;;3.92;;
23578;SDS011;11967;50.852;4.400;2023-05-20T02:59:26;12.45;;;4.18;;
23578;SDS011;11967;50.852;4.400;2023-05-20T03:01:57;8.68;;;3.67;;
23578;SDS011;11967;50.852;4.400;2023-05-20T03:04:24;10.27;;;4.10;;
23578;SDS011;11967;50.852;4.400;2023-05-20T03:06:51;11.93;;;3.97;;
23578;SDS011;11967;50.852;4.400;2023-05-20T03:09:16;8.40;;;3.85;;
23578;SDS011;11967;50.852;4.400;2023-05-20T03:11:45;11.00;;;4.10;;
23578;SDS011;11967;50.852;4.400;2023-05-20T03:14:12;9.63;;;3.78;;
23578;SDS011;11967;50.852;4.400;2023-05-20T03:16:38;12.20;;;4.22;;
23578;SDS011;11967;50.852;4.400;2023-05-20T03:19:04;8.32;;;3.88;;
23578;SDS011;11967;50.852;4.400;2023-05-20T03:21:29;9.23;;;3.88;;
23578;SDS011;11967;50.852;4.400;2023-05-20T03:23:58;15.10;;;3.95;;
23578;SDS011;11967;50.852;4.400;2023-05-20T03:26:29;9.20;;;4.15;;
23578;SDS011;11967;50.852;4.400;2023-05-20T03:28:58;8.77;;;4.00;;
23578;SDS011;11967;50.852;4.400;2023-05-20T03:31:27;9.95;;;4.47;;
23578;SDS011;11967;50.852;4.400;2023-05-20T03:33:53;8.00;;;4.18;;
23578;SDS011;11967;50.852;4.400;2023-05-20T03:36:19;11.75;;;4.15;;
23578;SDS011;11967;50.852;4.400;2023-05-20T03:38:45;8.68;;;4.10;;
23578;SDS011;11967;50.852;4.400;2023-05-20T03:41:10;8.90;;;4.05;;
23578;SDS011;11967;50.852;4.400;2023-05-20T03:43:36;9.98;;;4.15;;
23578;SDS011;11967;50.852;4.400;2023-05-20T03:46:01;8.73;;;4.20;;
23578;SDS011;11967;50.852;4.400;2023-05-20T03:48:28;11.40;;;4.18;;
23578;SDS011;11967;50.852;4.400;2023-05-20T03:50:54;11.45;;;4.65;;
23578;SDS011;11967;50.852;4.400;2023-05-20T03:53:19;8.70;;;4.13;;
23578;SDS011;11967;50.852;4.400;2023-05-20T03:55:45;9.60;;;4.20;;
23578;SDS011;11967;50.852;4.400;2023-05-20T03:58:12;10.13;;;4.50;;
23578;SDS011;11967;50.852;4.400;2023-05-20T04:00:40;8.18;;;4.30;;
23578;SDS011;11967;50.852;4.400;2023-05-20T04:03:06;7.70;;;4.30;;
23578;SDS011;11967;50.852;4.400;2023-05-20T04:05:31;10.02;;;4.40;;
23578;SDS011;11967;50.852;4.400;2023-05-20T04:07:57;9.85;;;4.38;;
23578;SDS011;11967;50.852;4.400;2023-05-20T04:10:24;11.98;;;4.45;;
23578;SDS011;11967;50.852;4.400;2023-05-20T04:12:50;12.20;;;4.88;;
23578;SDS011;11967;50.852;4.400;2023-05-20T04:15:16;8.98;;;4.28;;
23578;SDS011;11967;50.852;4.400;2023-05-20T04:17:43;15.82;;;4.55;;
23578;SDS011;11967;50.852;4.400;2023-05-20T04:20:13;10.77;;;4.53;;
23578;SDS011;11967;50.852;4.400;2023-05-20T04:22:38;12.18;;;4.38;;
23578;SDS011;11967;50.852;4.400;2023-05-20T04:25:04;10.80;;;4.32;;
23578;SDS011;11967;50.852;4.400;2023-05-20T04:27:31;11.38;;;4.40;;
23578;SDS011;11967;50.852;4.400;2023-05-20T04:29:59;13.38;;;4.63;;
23578;SDS011;11967;50.852;4.400;2023-05-20T04:32:26;11.30;;;4.35;;
23578;SDS011;11967;50.852;4.400;2023-05-20T04:34:52;10.50;;;4.18;;
23578;SDS011;11967;50.852;4.400;2023-05-20T04:37:20;8.05;;;4.00;;
23578;SDS011;11967;50.852;4.400;2023-05-20T04:39:46;12.93;;;4.60;;
23578;SDS011;11967;50.852;4.400;2023-05-20T04:42:14;12.68;;;4.68;;
23578;SDS011;11967;50.852;4.400;2023-05-20T04:44:42;13.00;;;4.40;;
23578;SDS011;11967;50.852;4.400;2023-05-20T04:47:10;11.90;;;4.70;;
23578;SDS011;11967;50.852;4.400;2023-05-20T04:49:36;9.85;;;4.75;;
23578;SDS011;11967;50.852;4.400;2023-05-20T04:52:02;11.73;;;4.57;;
23578;SDS011;11967;50.852;4.400;2023-05-20T04:54:28;9.13;;;4.78;;
23578;SDS011;11967;50.852;4.400;2023-05-20T04:56:54;13.50;;;4.75;;
23578;SDS011;11967;50.852;4.400;2023-05-20T04:59:20;11.13;;;5.15;;
23578;SDS011;11967;50.852;4.400;2023-05-20T05:01:46;12.60;;;4.90;;
23578;SDS011;11967;50.852;4.400;2023-05-20T05:04:12;12.43;;;5.03;;
23578;SDS011;11967;50.852;4.400;2023-05-20T05:06:37;12.60;;;4.72;;
23578;SDS011;11967;50.852;4.400;2023-05-20T05:09:03;10.52;;;4.45;;
23578;SDS011;11967;50.852;4.400;2023-05-20T05:11:29;11.30;;;5.03;;
23578;SDS011;11967;50.852;4.400;2023-05-20T05:13:55;11.02;;;4.68;;
23578;SDS011;11967;50.852;4.400;2023-05-20T05:16:20;12.20;;;4.47;;
23578;SDS011;11967;50.852;4.400;2023-05-20T05:18:46;10.55;;;4.55;;
23578;SDS011;11967;50.852;4.400;2023-05-20T05:21:12;10.40;;;4.45;;
23578;SDS011;11967;50.852;4.400;2023-05-20T05:23:37;12.15;;;4.60;;
23578;SDS011;11967;50.852;4.400;2023-05-20T05:26:03;7.50;;;4.18;;
23578;SDS011;11967;50.852;4.400;2023-05-20T05:28:29;11.43;;;4.85;;
23578;SDS011;11967;50.852;4.400;2023-05-20T05:30:54;14.45;;;5.00;;
23578;SDS011;11967;50.852;4.400;2023-05-20T05:33:20;15.95;;;4.65;;
23578;SDS011;11967;50.852;4.400;2023-05-20T05:35:46;9.85;;;4.85;;
23578;SDS011;11967;50.852;4.400;2023-05-20T05:38:12;13.32;;;5.20;;
23578;SDS011;11967;50.852;4.400;2023-05-20T05:40:38;13.30;;;5.38;;
23578;SDS011;11967;50.852;4.400;2023-05-20T05:43:03;13.38;;;6.00;;
23578;SDS011;11967;50.852;4.400;2023-05-20T05:45:29;13.23;;;4.72;;
23578;SDS011;11967;50.852;4.400;2023-05-20T05:47:55;10.10;;;4.82;;
23578;SDS011;11967;50.852;4.400;2023-05-20T05:50:20;12.60;;;5.03;;
23578;SDS011;11967;50.852;4.400;2023-05-20T05:52:46;11.88;;;5.10;;
23578;SDS011;11967;50.852;4.400;2023-05-20T05:55:13;12.90;;;5.38;;
23578;SDS011;11967;50.852;4.400;2023-05-20T05:57:39;15.88;;;5.47;;
23578;SDS011;11967;50.852;4.400;2023-05-20T06:00:05;12.57;;;5.78;;
23578;SDS011;11967;50.852;4.400;2023-05-20T06:02:32;12.88;;;5.70;;
23578;SDS011;11967;50.852;4.400;2023-05-20T06:05:02;10.60;;;4.97;;
23578;SDS011;11967;50.852;4.400;2023-05-20T06:07:28;14.40;;;5.20;;
23578;SDS011;11967;50.852;4.400;2023-05-20T06:09:54;9.98;;;4.97;;
23578;SDS011;11967;50.852;4.400;2023-05-20T06:12:20;19.08;;;13.38;;
23578;SDS011;11967;50.852;4.400;2023-05-20T06:14:46;13.25;;;7.00;;
23578;SDS011;11967;50.852;4.400;2023-05-20T06:17:12;11.43;;;6.07;;
23578;SDS011;11967;50.852;4.400;2023-05-20T06:19:38;12.75;;;5.93;;
23578;SDS011;11967;50.852;4.400;2023-05-20T06:22:03;13.93;;;5.80;;
23578;SDS011;11967;50.852;4.400;2023-05-20T06:24:29;10.48;;;5.93;;
23578;SDS011;11967;50.852;4.400;2023-05-20T06:26:55;12.50;;;5.40;;
23578;SDS011;11967;50.852;4.400;2023-05-20T06:29:21;59.58;;;28.33;;
23578;SDS011;11967;50.852;4.400;2023-05-20T06:31:47;40.63;;;20.95;;
23578;SDS011;11967;50.852;4.400;2023-05-20T06:34:13;44.13;;;21.02;;
23578;SDS011;11967;50.852;4.400;2023-05-20T06:36:40;23.42;;;11.02;;
23578;SDS011;11967;50.852;4.400;2023-05-20T06:39:07;15.93;;;7.03;;
23578;SDS011;11967;50.852;4.400;2023-05-20T06:41:39;12.25;;;5.57;;
23578;SDS011;11967;50.852;4.400;2023-05-20T06:44:05;12.75;;;5.93;;
23578;SDS011;11967;50.852;4.400;2023-05-20T06:46:31;14.85;;;6.10;;
23578;SDS011;11967;50.852;4.400;2023-05-20T06:48:58;13.52;;;5.53;;
23578;SDS011;11967;50.852;4.400;2023-05-20T06:51:23;8.60;;;5.03;;
23578;SDS011;11967;50.852;4.400;2023-05-20T06:53:49;10.90;;;5.13;;
23578;SDS011;11967;50.852;4.400;2023-05-20T06:56:15;13.25;;;5.63;;
23578;SDS011;11967;50.852;4.400;2023-05-20T06:58:40;11.68;;;5.30;;
23578;SDS011;11967;50.852;4.400;2023-05-20T07:01:06;10.30;;;5.10;;
23578;SDS011;11967;50.852;4.400;2023-05-20T07:03:32;12.55;;;5.22;;
23578;SDS011;11967;50.852;4.400;2023-05-20T07:05:57;12.75;;;4.85;;
23578;SDS011;11967;50.852;4.400;2023-05-20T07:08:23;11.68;;;5.10;;
23578;SDS011;11967;50.852;4.400;2023-05-20T07:10:49;10.55;;;5.10;;
23578;SDS011;11967;50.852;4.400;2023-05-20T07:13:14;8.82;;;4.80;;
23578;SDS011;11967;50.852;4.400;2023-05-20T07:15:40;11.35;;;4.70;;
23578;SDS011;11967;50.852;4.400;2023-05-20T07:18:06;7.93;;;4.30;;
23578;SDS011;11967;50.852;4.400;2023-05-20T07:20:31;6.80;;;4.32;;
23578;SDS011;11967;50.852;4.400;2023-05-20T07:22:57;10.75;;;4.88;;
23578;SDS011;11967;50.852;4.400;2023-05-20T07:25:23;14.10;;;5.32;;
23578;SDS011;11967;50.852;4.400;2023-05-20T07:27:48;7.55;;;4.43;;
23578;SDS011;11967;50.852;4.400;2023-05-20T07:30:14;13.30;;;5.30;;
23578;SDS011;11967;50.852;4.400;2023-05-20T07:32:40;11.15;;;4.95;;
23578;SDS011;11967;50.852;4.400;2023-05-20T07:35:06;12.18;;;7.07;;
23578;SDS011;11967;50.852;4.400;2023-05-20T07:37:32;13.75;;;8.50;;
23578;SDS011;11967;50.852;4.400;2023-05-20T07:39:59;9.38;;;5.28;;
23578;SDS011;11967;50.852;4.400;2023-05-20T07:42:25;11.18;;;5.50;;
23578;SDS011;11967;50.852;4.400;2023-05-20T07:44:51;9.77;;;4.47;;
23578;SDS011;11967;50.852;4.400;2023-05-20T07:47:17;7.95;;;4.68;;
23578;SDS011;11967;50.852;4.400;2023-05-20T07:49:42;8.40;;;4.57;;
23578;SDS011;11967;50.852;4.400;2023-05-20T07:52:08;9.93;;;4.60;;
23578;SDS011;11967;50.852;4.400;2023-05-20T07:54:34;9.05;;;4.30;;
23578;SDS011;11967;50.852;4.400;2023-05-20T07:57:00;8.35;;;3.92;;
23578;SDS011;11967;50.852;4.400;2023-05-20T07:59:26;9.05;;;4.13;;
23578;SDS011;11967;50.852;4.400;2023-05-20T08:01:51;7.57;;;3.90;;
23578;SDS011;11967;50.852;4.400;2023-05-20T08:04:17;9.00;;;3.92;;
23578;SDS011;11967;50.852;4.400;2023-05-20T08:06:43;7.18;;;3.50;;
23578;SDS011;11967;50.852;4.400;2023-05-20T08:09:09;7.47;;;3.58;;
23578;SDS011;11967;50.852;4.400;2023-05-20T08:11:35;11.73;;;4.10;;
23578;SDS011;11967;50.852;4.400;2023-05-20T08:14:00;8.18;;;4.00;;
23578;SDS011;11967;50.852;4.400;2023-05-20T08:16:26;10.30;;;3.80;;
23578;SDS011;11967;50.852;4.400;2023-05-20T08:18:52;8.57;;;3.92;;
23578;SDS011;11967;50.852;4.400;2023-05-20T08:21:18;20.27;;;9.40;;
23578;SDS011;11967;50.852;4.400;2023-05-20T08:23:43;9.30;;;4.40;;
23578;SDS011;11967;50.852;4.400;2023-05-20T08:26:09;7.78;;;3.95;;
23578;SDS011;11967;50.852;4.400;2023-05-20T08:28:35;8.40;;;3.85;;
23578;SDS011;11967;50.852;4.400;2023-05-20T08:31:04;8.13;;;4.25;;
23578;SDS011;11967;50.852;4.400;2023-05-20T08:33:29;7.18;;;4.30;;
23578;SDS011;11967;50.852;4.400;2023-05-20T08:35:55;9.02;;;3.55;;
23578;SDS011;11967;50.852;4.400;2023-05-20T08:38:21;10.90;;;4.78;;
23578;SDS011;11967;50.852;4.400;2023-05-20T08:40:54;14.05;;;4.35;;
23578;SDS011;11967;50.852;4.400;2023-05-20T08:43:21;7.80;;;4.15;;
23578;SDS011;11967;50.852;4.400;2023-05-20T08:45:51;15.27;;;5.05;;
23578;SDS011;11967;50.852;4.400;2023-05-20T08:48:17;27.88;;;18.23;;
23578;SDS011;11967;50.852;4.400;2023-05-20T08:50:48;17.17;;;9.23;;
23578;SDS011;11967;50.852;4.400;2023-05-20T08:53:16;12.68;;;5.28;;
23578;SDS011;11967;50.852;4.400;2023-05-20T08:55:48;7.88;;;4.30;;
23578;SDS011;11967;50.852;4.400;2023-05-20T08:58:17;7.22;;;3.72;;
23578;SDS011;11967;50.852;4.400;2023-05-20T09:00:43;8.68;;;4.15;;
23578;SDS011;11967;50.852;4.400;2023-05-20T09:03:09;13.55;;;4.78;;
23578;SDS011;11967;50.852;4.400;2023-05-20T09:05:35;7.90;;;3.83;;
23578;SDS011;11967;50.852;4.400;2023-05-20T09:08:08;13.38;;;3.78;;
23578;SDS011;11967;50.852;4.400;2023-05-20T09:10:35;8.00;;;3.00;;
23578;SDS011;11967;50.852;4.400;2023-05-20T09:13:02;8.90;;;3.53;;
23578;SDS011;11967;50.852;4.400;2023-05-20T09:15:29;10.73;;;3.70;;
23578;SDS011;11967;50.852;4.400;2023-05-20T09:17:58;6.80;;;3.45;;
23578;SDS011;11967;50.852;4.400;2023-05-20T09:20:28;8.27;;;3.17;;
23578;SDS011;11967;50.852;4.400;2023-05-20T09:22:59;7.20;;;3.50;;
23578;SDS011;11967;50.852;4.400;2023-05-20T09:27:54;7.78;;;3.08;;
23578;SDS011;11967;50.852;4.400;2023-05-20T09:30:21;7.10;;;3.42;;
23578;SDS011;11967;50.852;4.400;2023-05-20T09:32:57;7.53;;;3.40;;
23578;SDS011;11967;50.852;4.400;2023-05-20T09:35:24;7.63;;;3.20;;
23578;SDS011;11967;50.852;4.400;2023-05-20T09:37:52;7.72;;;3.50;;
23578;SDS011;11967;50.852;4.400;2023-05-20T09:40:22;7.95;;;3.10;;
23578;SDS011;11967;50.852;4.400;2023-05-20T09:42:51;6.45;;;3.00;;
23578;SDS011;11967;50.852;4.400;2023-05-20T09:45:21;9.52;;;3.53;;
23578;SDS011;11967;50.852;4.400;2023-05-20T09:47:50;6.05;;;2.88;;
23578;SDS011;11967;50.852;4.400;2023-05-20T09:50:19;8.48;;;3.08;;
23578;SDS011;11967;50.852;4.400;2023-05-20T09:52:46;9.70;;;3.15;;
23578;SDS011;11967;50.852;4.400;2023-05-20T09:55:13;7.47;;;3.35;;
23578;SDS011;11967;50.852;4.400;2023-05-20T09:57:44;13.20;;;3.38;;
23578;SDS011;11967;50.852;4.400;2023-05-20T10:00:11;4.68;;;2.80;;
23578;SDS011;11967;50.852;4.400;2023-05-20T10:02:42;6.47;;;3.20;;
23578;SDS011;11967;50.852;4.400;2023-05-20T10:05:46;6.05;;;3.42;;
23578;SDS011;11967;50.852;4.400;2023-05-20T10:11:10;5.05;;;3.13;;
23578;SDS011;11967;50.852;4.400;2023-05-20T10:21:39;8.65;;;3.05;;
23578;SDS011;11967;50.852;4.400;2023-05-20T10:24:05;5.97;;;3.05;;
23578;SDS011;11967;50.852;4.400;2023-05-20T10:26:38;7.15;;;3.03;;
23578;SDS011;11967;50.852;4.400;2023-05-20T10:29:17;5.38;;;3.10;;
23578;SDS011;11967;50.852;4.400;2023-05-20T10:31:47;6.20;;;3.08;;
23578;SDS011;11967;50.852;4.400;2023-05-20T10:34:14;9.80;;;3.20;;
23578;SDS011;11967;50.852;4.400;2023-05-20T10:36:44;5.65;;;2.72;;
23578;SDS011;11967;50.852;4.400;2023-05-20T10:39:15;7.55;;;2.70;;
23578;SDS011;11967;50.852;4.400;2023-05-20T10:41:44;4.70;;;2.78;;
23578;SDS011;11967;50.852;4.400;2023-05-20T10:44:10;6.70;;;2.83;;
23578;SDS011;11967;50.852;4.400;2023-05-20T10:46:36;9.65;;;3.17;;
23578;SDS011;11967;50.852;4.400;2023-05-20T10:49:03;6.65;;;3.13;;
23578;SDS011;11967;50.852;4.400;2023-05-20T10:51:29;5.95;;;3.42;;
23578;SDS011;11967;50.852;4.400;2023-05-20T10:53:57;8.55;;;3.35;;
23578;SDS011;11967;50.852;4.400;2023-05-20T10:56:24;9.13;;;4.10;;
23578;SDS011;11967;50.852;4.400;2023-05-20T10:58:51;13.25;;;3.78;;
23578;SDS011;11967;50.852;4.400;2023-05-20T11:01:18;4.88;;;2.70;;
23578;SDS011;11967;50.852;4.400;2023-05-20T11:03:47;6.93;;;2.83;;
23578;SDS011;11967;50.852;4.400;2023-05-20T11:06:14;7.50;;;3.20;;
23578;SDS011;11967;50.852;4.400;2023-05-20T11:08:43;10.57;;;3.13;;
23578;SDS011;11967;50.852;4.400;2023-05-20T11:11:10;6.90;;;2.78;;
23578;SDS011;11967;50.852;4.400;2023-05-20T11:13:37;8.82;;;5.07;;
23578;SDS011;11967;50.852;4.400;2023-05-20T11:16:03;11.77;;;3.88;;
23578;SDS011;11967;50.852;4.400;2023-05-20T11:18:29;7.65;;;3.63;;
23578;SDS011;11967;50.852;4.400;2023-05-20T11:20:59;7.50;;;3.28;;
23578;SDS011;11967;50.852;4.400;2023-05-20T11:23:27;11.63;;;3.50;;
23578;SDS011;11967;50.852;4.400;2023-05-20T11:25:55;9.00;;;2.95;;
23578;SDS011;11967;50.852;4.400;2023-05-20T11:28:22;7.22;;;3.38;;
23578;SDS011;11967;50.852;4.400;2023-05-20T11:30:48;8.57;;;3.00;;
23578;SDS011;11967;50.852;4.400;2023-05-20T11:33:16;8.40;;;3.15;;
23578;SDS011;11967;50.852;4.400;2023-05-20T11:35:50;7.07;;;3.10;;
23578;SDS011;11967;50.852;4.400;2023-05-20T11:38:16;7.65;;;3.33;;
23578;SDS011;11967;50.852;4.400;2023-05-20T11:40:43;7.78;;;3.03;;
23578;SDS011;11967;50.852;4.400;2023-05-20T11:43:11;5.03;;;2.90;;
23578;SDS011;11967;50.852;4.400;2023-05-20T11:45:41;8.35;;;3.00;;
23578;SDS011;11967;50.852;4.400;2023-05-20T11:48:08;7.28;;;3.17;;
23578;SDS011;11967;50.852;4.400;2023-05-20T11:50:38;8.77;;;3.25;;
23578;SDS011;11967;50.852;4.400;2023-05-20T11:53:06;10.82;;;3.30;;
23578;SDS011;11967;50.852;4.400;2023-05-20T11:55:32;8.07;;;3.03;;
23578;SDS011;11967;50.852;4.400;2023-05-20T11:58:00;9.35;;;3.35;;
23578;SDS011;11967;50.852;4.400;2023-05-20T12:00:27;5.53;;;3.05;;
23578;SDS011;11967;50.852;4.400;2023-05-20T12:02:53;6.00;;;3.95;;
23578;SDS011;11967;50.852;4.400;2023-05-20T12:05:18;7.93;;;4.78;;
23578;SDS011;11967;50.852;4.400;2023-05-20T12:07:44;6.40;;;3.13;;
23578;SDS011;11967;50.852;4.400;2023-05-20T12:10:10;6.65;;;3.65;;
23578;SDS011;11967;50.852;4.400;2023-05-20T12:12:37;7.75;;;3.20;;
23578;SDS011;11967;50.852;4.400;2023-05-20T12:15:03;7.03;;;2.88;;
23578;SDS011;11967;50.852;4.400;2023-05-20T12:17:42;6.15;;;3.10;;
23578;SDS011;11967;50.852;4.400;2023-05-20T12:20:10;4.63;;;3.10;;
23578;SDS011;11967;50.852;4.400;2023-05-20T12:22:37;6.18;;;3.05;;
23578;SDS011;11967;50.852;4.400;2023-05-20T12:25:02;4.57;;;3.00;;
23578;SDS011;11967;50.852;4.400;2023-05-20T12:27:28;7.25;;;3.13;;
23578;SDS011;11967;50.852;4.400;2023-05-20T12:29:54;11.55;;;2.90;;
23578;SDS011;11967;50.852;4.400;2023-05-20T12:32:20;6.55;;;2.97;;
23578;SDS011;11967;50.852;4.400;2023-05-20T12:34:47;8.80;;;3.10;;
23578;SDS011;11967;50.852;4.400;2023-05-20T12:37:13;4.68;;;3.00;;
23578;SDS011;11967;50.852;4.400;2023-05-20T12:39:38;6.50;;;2.70;;
23578;SDS011;11967;50.852;4.400;2023-05-20T12:42:04;9.60;;;2.97;;
23578;SDS011;11967;50.852;4.400;2023-05-20T12:44:30;6.53;;;3.00;;
23578;SDS011;11967;50.852;4.400;2023-05-20T12:46:56;5.15;;;2.60;;
23578;SDS011;11967;50.852;4.400;2023-05-20T12:49:22;5.70;;;3.10;;
23578;SDS011;11967;50.852;4.400;2023-05-20T12:51:47;4.88;;;3.20;;
23578;SDS011;11967;50.852;4.400;2023-05-20T12:54:13;6.10;;;3.03;;
23578;SDS011;11967;50.852;4.400;2023-05-20T12:56:41;5.28;;;3.05;;
23578;SDS011;11967;50.852;4.400;2023-05-20T12:59:11;6.40;;;3.75;;
23578;SDS011;11967;50.852;4.400;2023-05-20T13:01:37;5.15;;;2.88;;
23578;SDS011;11967;50.852;4.400;2023-05-20T13:04:03;6.53;;;3.10;;
23578;SDS011;11967;50.852;4.400;2023-05-20T13:06:29;5.75;;;2.65;;
23578;SDS011;11967;50.852;4.400;2023-05-20T13:08:55;4.03;;;2.47;;
23578;SDS011;11967;50.852;4.400;2023-05-20T13:11:21;5.82;;;2.53;;
23578;SDS011;11967;50.852;4.400;2023-05-20T13:13:47;5.70;;;2.40;;
23578;SDS011;11967;50.852;4.400;2023-05-20T13:16:13;5.40;;;2.67;;
23578;SDS011;11967;50.852;4.400;2023-05-20T13:18:40;7.82;;;2.53;;
23578;SDS011;11967;50.852;4.400;2023-05-20T13:21:06;4.10;;;2.45;;
23578;SDS011;11967;50.852;4.400;2023-05-20T13:23:31;3.80;;;2.75;;
23578;SDS011;11967;50.852;4.400;2023-05-20T13:25:57;6.47;;;2.58;;
23578;SDS011;11967;50.852;4.400;2023-05-20T13:28:23;5.03;;;2.53;;
23578;SDS011;11967;50.852;4.400;2023-05-20T13:30:49;6.22;;;2.78;;
23578;SDS011;11967;50.852;4.400;2023-05-20T13:33:15;6.20;;;2.95;;
23578;SDS011;11967;50.852;4.400;2023-05-20T13:35:40;4.85;;;2.90;;
23578;SDS011;11967;50.852;4.400;2023-05-20T13:38:06;4.63;;;2.63;;
23578;SDS011;11967;50.852;4.400;2023-05-20T13:40:32;3.40;;;2.50;;
23578;SDS011;11967;50.852;4.400;2023-05-20T13:42:58;9.63;;;2.80;;
23578;SDS011;11967;50.852;4.400;2023-05-20T13:45:23;5.70;;;2.70;;
23578;SDS011;11967;50.852;4.400;2023-05-20T13:47:49;4.15;;;2.60;;
23578;SDS011;11967;50.852;4.400;2023-05-20T13:50:15;5.40;;;2.47;;
23578;SDS011;11967;50.852;4.400;2023-05-20T13:52:41;13.68;;;7.80;;
23578;SDS011;11967;50.852;4.400;2023-05-20T13:55:06;4.13;;;2.70;;
23578;SDS011;11967;50.852;4.400;2023-05-20T13:57:32;4.75;;;2.95;;
23578;SDS011;11967;50.852;4.400;2023-05-20T13:59:58;6.85;;;2.67;;
23578;SDS011;11967;50.852;4.400;2023-05-20T14:02:23;8.15;;;2.72;;
23578;SDS011;11967;50.852;4.400;2023-05-20T14:04:49;3.47;;;2.92;;
23578;SDS011;11967;50.852;4.400;2023-05-20T14:07:15;5.78;;;2.60;;
23578;SDS011;11967;50.852;4.400;2023-05-20T14:09:41;6.13;;;3.10;;
23578;SDS011;11967;50.852;4.400;2023-05-20T14:12:06;6.07;;;3.05;;
23578;SDS011;11967;50.852;4.400;2023-05-20T14:14:32;4.55;;;2.97;;
23578;SDS011;11967;50.852;4.400;2023-05-20T14:16:58;4.07;;;2.63;;
23578;SDS011;11967;50.852;4.400;2023-05-20T14:19:25;5.15;;;2.72;;
23578;SDS011;11967;50.852;4.400;2023-05-20T14:21:50;6.05;;;3.58;;
23578;SDS011;11967;50.852;4.400;2023-05-20T14:24:17;5.00;;;2.88;;
23578;SDS011;11967;50.852;4.400;2023-05-20T14:26:43;4.63;;;2.55;;
23578;SDS011;11967;50.852;4.400;2023-05-20T14:29:08;6.13;;;2.85;;
23578;SDS011;11967;50.852;4.400;2023-05-20T14:31:34;3.70;;;2.67;;
23578;SDS011;11967;50.852;4.400;2023-05-20T14:34:02;6.38;;;3.35;;
23578;SDS011;11967;50.852;4.400;2023-05-20T14:36:28;6.03;;;2.90;;
23578;SDS011;11967;50.852;4.400;2023-05-20T14:38:53;3.63;;;2.60;;
23578;SDS011;11967;50.852;4.400;2023-05-20T14:41:19;6.65;;;3.33;;
23578;SDS011;11967;50.852;4.400;2023-05-20T14:43:46;6.38;;;2.42;;
23578;SDS011;11967;50.852;4.400;2023-05-20T14:46:12;21.70;;;17.05;;
23578;SDS011;11967;50.852;4.400;2023-05-20T14:48:37;7.82;;;4.90;;
23578;SDS011;11967;50.852;4.400;2023-05-20T14:51:03;6.45;;;3.28;;
23578;SDS011;11967;50.852;4.400;2023-05-20T14:53:29;5.90;;;3.38;;